Time;durP1;ratioP1;P1;durP2;ratioP2;P2;SDS_P1;SDS_P2;PMS_P1;PMS_P2;Temp;Humidity;BMP_temperature;BMP_pressure;BME280_temperature;BME280_humidity;BME280_pressure;Samples;Min_cycle;Max_cycle;Signal;HPM_P1;HPM_P2
2023/06/06 00:00:48;;;;;;;3.90;2.60;;;17.10;57.10;;;;;;4995950;28;20030;-79
2023/06/06 00:03:13;;;;;;;4.15;2.13;;;17.00;56.90;;;;;;4996851;28;20094;-81
2023/06/06 00:05:39;;;;;;;3.65;1.88;;;17.00;56.90;;;;;;4995646;28;20038;-78
2023/06/06 00:08:07;;;;;;;2.47;1.95;;;17.00;56.80;;;;;;4996792;28;20033;-78
2023/06/06 00:10:33;;;;;;;3.45;2.20;;;17.00;56.70;;;;;;4995561;28;20018;-78
2023/06/06 00:13:01;;;;;;;1.70;1.60;;;17.00;56.80;;;;;;4996760;28;20105;-78
2023/06/06 00:15:28;;;;;;;11.98;2.00;;;17.00;56.50;;;;;;4995648;28;20096;-79
2023/06/06 00:17:55;;;;;;;2.72;1.98;;;17.00;56.60;;;;;;4996891;28;20491;-80
2023/06/06 00:20:22;;;;;;;2.10;1.90;;;17.00;56.40;;;;;;4997010;28;20096;-78
2023/06/06 00:22:48;;;;;;;3.97;1.85;;;17.00;56.40;;;;;;4995433;28;20037;-78
2023/06/06 00:25:15;;;;;;;2.10;1.90;;;17.00;56.50;;;;;;4996729;28;20030;-80
2023/06/06 00:27:40;;;;;;;1.85;1.48;;;16.90;56.50;;;;;;4996524;28;20101;-80
2023/06/06 00:30:08;;;;;;;2.53;1.88;;;16.90;56.20;;;;;;4995367;28;20126;-79
2023/06/06 00:32:33;;;;;;;2.40;2.20;;;17.00;56.10;;;;;;4996397;28;20027;-80
2023/06/06 00:34:59;;;;;;;3.47;2.20;;;16.90;56.10;;;;;;4995120;28;20081;-80
2023/06/06 00:37:24;;;;;;;2.20;1.67;;;17.00;56.10;;;;;;4996344;28;20018;-81
2023/06/06 00:39:50;;;;;;;2.50;2.05;;;16.90;55.90;;;;;;4996371;28;20058;-81
2023/06/06 00:42:16;;;;;;;2.85;2.05;;;16.90;55.80;;;;;;4996104;28;20093;-81
2023/06/06 00:44:42;;;;;;;2.00;1.65;;;16.90;55.90;;;;;;4996261;28;20069;-79
2023/06/06 00:47:08;;;;;;;3.58;2.00;;;16.90;56.10;;;;;;4996263;28;20030;-80
2023/06/06 00:49:36;;;;;;;3.47;2.03;;;16.90;55.90;;;;;;4994989;28;20026;-81
2023/06/06 00:52:02;;;;;;;3.28;1.83;;;16.90;55.90;;;;;;4994822;28;20042;-81
2023/06/06 00:54:29;;;;;;;2.50;2.30;;;16.90;56.00;;;;;;4994863;28;20514;-79
2023/06/06 00:56:55;;;;;;;3.97;2.10;;;16.80;55.70;;;;;;4994685;28;20041;-79
2023/06/06 00:59:23;;;;;;;5.00;1.75;;;16.90;55.90;;;;;;4994671;28;20022;-81
2023/06/06 01:01:48;;;;;;;2.75;2.25;;;16.80;55.80;;;;;;4994302;28;20425;-80
2023/06/06 01:04:15;;;;;;;3.38;2.03;;;16.90;56.00;;;;;;4995318;28;20023;-78
2023/06/06 01:06:41;;;;;;;2.20;1.88;;;16.90;56.00;;;;;;4994626;28;20096;-78
2023/06/06 01:09:09;;;;;;;8.02;1.92;;;16.80;55.70;;;;;;4994466;28;20023;-81
2023/06/06 01:11:48;;;;;;;4.68;1.35;;;16.80;55.90;;;;;;4994344;28;20037;-78
2023/06/06 01:14:31;;;;;;;3.60;1.50;;;16.80;56.10;;;;;;4994442;28;20030;-81
2023/06/06 01:17:01;;;;;;;3.03;2.00;;;16.80;55.80;;;;;;4994361;28;20488;-79
2023/06/06 01:19:29;;;;;;;2.25;1.90;;;16.80;56.00;;;;;;4995542;28;20037;-79
2023/06/06 01:21:59;;;;;;;3.90;1.92;;;16.80;56.10;;;;;;4994400;28;20036;-79
2023/06/06 01:24:27;;;;;;;1.98;1.80;;;16.70;56.20;;;;;;4994429;28;20023;-80
2023/06/06 01:26:54;;;;;;;2.53;1.83;;;16.80;56.30;;;;;;4994319;28;20090;-80
2023/06/06 01:29:20;;;;;;;2.75;2.55;;;16.80;56.30;;;;;;4994186;28;20033;-80
2023/06/06 01:32:12;;;;;;;3.78;2.42;;;16.70;56.40;;;;;;4995374;28;20041;-80
2023/06/06 01:34:56;;;;;;;2.30;1.95;;;16.70;56.30;;;;;;5000190;28;20133;-78
2023/06/06 01:37:47;;;;;;;3.88;2.22;;;16.70;56.30;;;;;;4995318;28;20022;-80
2023/06/06 01:40:15;;;;;;;2.78;1.90;;;16.70;56.20;;;;;;4995273;28;20476;-80
2023/06/06 01:42:47;;;;;;;2.30;1.75;;;16.60;56.40;;;;;;4993940;28;20085;-78
2023/06/06 01:45:16;;;;;;;3.65;2.00;;;16.70;56.60;;;;;;4995219;28;20026;-80
2023/06/06 01:47:43;;;;;;;2.65;1.95;;;16.60;56.40;;;;;;4993731;28;20490;-81
2023/06/06 01:50:09;;;;;;;5.25;2.10;;;16.60;56.60;;;;;;4993803;28;20026;-80
2023/06/06 01:52:38;;;;;;;5.10;2.60;;;16.60;56.40;;;;;;4995534;28;20026;-81
2023/06/06 01:55:05;;;;;;;5.18;1.80;;;16.60;56.50;;;;;;4993867;28;20081;-79
2023/06/06 01:57:31;;;;;;;2.45;2.13;;;16.50;56.60;;;;;;4993796;28;20030;-81
2023/06/06 01:59:58;;;;;;;4.35;1.85;;;16.50;56.60;;;;;;4993501;28;20469;-79
2023/06/06 02:02:23;;;;;;;1.83;1.70;;;16.50;56.80;;;;;;4994659;28;20520;-80
2023/06/06 02:04:49;;;;;;;3.20;1.77;;;16.50;56.90;;;;;;4994844;28;20057;-80
2023/06/06 02:07:16;;;;;;;2.60;1.55;;;16.50;56.90;;;;;;4993142;28;20021;-79
2023/06/06 02:09:42;;;;;;;4.40;1.88;;;16.50;57.00;;;;;;4993441;28;20050;-80
2023/06/06 02:12:09;;;;;;;3.72;2.50;;;16.50;56.90;;;;;;4994672;28;20027;-79
2023/06/06 02:14:34;;;;;;;3.90;2.33;;;16.40;56.90;;;;;;4993528;28;20034;-80
2023/06/06 02:17:00;;;;;;;2.65;1.95;;;16.50;56.90;;;;;;4994783;28;20026;-78
2023/06/06 02:19:26;;;;;;;2.70;1.88;;;16.40;57.00;;;;;;4994678;28;20030;-78
2023/06/06 02:21:52;;;;;;;3.33;1.77;;;16.40;56.90;;;;;;4994301;28;20038;-80
2023/06/06 02:24:18;;;;;;;3.30;1.90;;;16.40;57.10;;;;;;4994444;28;20026;-78
2023/06/06 02:26:44;;;;;;;3.72;1.90;;;16.40;57.00;;;;;;4994549;28;20519;-80
2023/06/06 02:29:10;;;;;;;7.80;2.55;;;16.40;57.10;;;;;;4993032;28;20022;-78
2023/06/06 02:31:36;;;;;;;3.80;1.85;;;16.30;57.20;;;;;;4993158;28;20062;-79
2023/06/06 02:34:02;;;;;;;3.42;1.60;;;16.30;57.40;;;;;;4993003;28;20053;-78
2023/06/06 02:36:29;;;;;;;4.30;2.55;;;16.30;57.60;;;;;;4994367;28;20396;-80
2023/06/06 02:38:56;;;;;;;5.70;2.35;;;16.30;57.70;;;;;;4992941;28;20477;-80
2023/06/06 02:41:21;;;;;;;1.73;1.63;;;16.20;57.60;;;;;;4994328;28;20042;-81
2023/06/06 02:43:47;;;;;;;3.78;2.47;;;16.20;57.60;;;;;;4992769;28;20022;-81
2023/06/06 02:46:13;;;;;;;2.85;2.08;;;16.20;57.50;;;;;;4993491;28;20488;-80
2023/06/06 02:48:39;;;;;;;4.15;1.90;;;16.10;57.70;;;;;;4992995;28;20109;-80
2023/06/06 02:51:06;;;;;;;3.75;2.33;;;16.10;58.00;;;;;;4994136;28;20018;-79
2023/06/06 02:53:32;;;;;;;3.55;2.30;;;16.20;58.10;;;;;;4992812;28;20053;-79
2023/06/06 02:55:58;;;;;;;2.75;2.00;;;16.10;58.10;;;;;;4992754;28;20030;-79
2023/06/06 02:58:27;;;;;;;1.80;1.67;;;16.10;58.00;;;;;;4993985;28;20018;-81
2023/06/06 03:00:53;;;;;;;5.25;2.50;;;16.10;58.20;;;;;;4992365;28;20038;-81
2023/06/06 03:03:19;;;;;;;3.35;2.10;;;16.10;58.10;;;;;;4992458;28;20050;-82
2023/06/06 03:05:51;;;;;;;2.00;1.85;;;16.00;58.10;;;;;;4992594;28;20468;-81
2023/06/06 03:08:19;;;;;;;5.90;1.98;;;16.00;58.20;;;;;;4993494;28;20455;-79
2023/06/06 03:10:49;;;;;;;3.28;2.25;;;16.00;58.30;;;;;;4993981;28;20022;-79
2023/06/06 03:13:15;;;;;;;2.60;2.28;;;16.00;58.30;;;;;;4992600;28;20059;-79
2023/06/06 03:15:44;;;;;;;4.80;2.65;;;16.00;59.00;;;;;;4992637;28;20456;-79
2023/06/06 03:18:11;;;;;;;4.60;2.30;;;16.00;58.50;;;;;;4993793;28;20023;-79
2023/06/06 03:20:40;;;;;;;1.90;1.73;;;16.00;58.40;;;;;;4992576;28;20504;-79
2023/06/06 03:23:06;;;;;;;3.25;2.30;;;16.00;58.20;;;;;;4993820;28;20512;-79
2023/06/06 03:25:33;;;;;;;4.22;2.10;;;16.00;58.20;;;;;;4993727;28;20170;-79
2023/06/06 03:28:00;;;;;;;3.30;2.20;;;16.10;58.40;;;;;;4992460;28;20057;-81
2023/06/06 03:30:26;;;;;;;4.32;2.30;;;16.10;58.40;;;;;;4992670;28;20026;-81
2023/06/06 03:32:52;;;;;;;4.13;2.38;;;16.10;58.60;;;;;;4992584;28;20049;-81
2023/06/06 03:35:18;;;;;;;3.55;1.95;;;16.10;58.70;;;;;;4992456;28;20488;-78
2023/06/06 03:37:44;;;;;;;3.50;2.28;;;16.10;58.80;;;;;;4992399;28;20384;-81
2023/06/06 03:40:11;;;;;;;4.35;2.00;;;16.10;58.80;;;;;;4992256;28;20030;-81
2023/06/06 03:42:37;;;;;;;3.17;2.70;;;16.10;58.70;;;;;;4993718;28;20030;-79
2023/06/06 03:45:03;;;;;;;2.50;2.28;;;16.10;58.80;;;;;;4993568;28;20019;-80
2023/06/06 03:47:29;;;;;;;4.25;2.28;;;16.10;58.80;;;;;;4993532;28;20031;-81
2023/06/06 03:49:55;;;;;;;3.25;2.05;;;16.10;59.00;;;;;;4992236;28;20385;-78
2023/06/06 03:52:20;;;;;;;6.03;2.30;;;16.20;58.80;;;;;;4993460;28;20474;-78
2023/06/06 03:54:46;;;;;;;3.80;2.00;;;16.20;58.70;;;;;;4993634;28;20432;-81
2023/06/06 03:57:12;;;;;;;3.05;2.25;;;16.20;58.70;;;;;;4994880;28;20044;-79
2023/06/06 03:59:37;;;;;;;5.07;2.45;;;16.20;59.00;;;;;;4995965;28;20463;-81
2023/06/06 04:02:03;;;;;;;3.03;1.95;;;16.20;58.80;;;;;;4995598;28;20137;-79
2023/06/06 04:04:30;;;;;;;3.83;2.10;;;16.20;59.20;;;;;;4995839;28;20027;-81
2023/06/06 04:06:58;;;;;;;2.13;1.73;;;16.20;58.70;;;;;;4995666;28;20031;-81
2023/06/06 04:09:23;;;;;;;2.72;2.00;;;16.20;58.80;;;;;;4996937;28;20076;-80
2023/06/06 04:11:49;;;;;;;3.70;2.45;;;16.20;58.70;;;;;;4996932;28;20027;-80
2023/06/06 04:14:15;;;;;;;3.63;2.25;;;16.20;58.50;;;;;;4995643;28;20015;-81
2023/06/06 04:16:40;;;;;;;3.78;2.53;;;16.30;58.60;;;;;;4996839;28;20014;-80
2023/06/06 04:19:07;;;;;;;3.10;2.47;;;16.30;58.80;;;;;;4995674;28;20026;-80
2023/06/06 04:21:33;;;;;;;3.67;2.58;;;16.30;58.10;;;;;;4996671;28;20443;-80
2023/06/06 04:23:59;;;;;;;5.78;2.38;;;16.40;58.60;;;;;;4995623;28;20027;-79
2023/06/06 04:26:31;;;;;;;4.18;2.67;;;16.40;58.50;;;;;;4996670;28;20026;-80
2023/06/06 04:29:02;;;;;;;3.28;2.30;;;16.40;58.80;;;;;;4995389;28;20026;-80
2023/06/06 04:31:32;;;;;;;6.07;3.10;;;16.40;58.50;;;;;;4995185;28;20034;-79
2023/06/06 04:34:03;;;;;;;5.35;2.35;;;16.40;58.70;;;;;;4996536;28;20030;-79
2023/06/06 04:36:28;;;;;;;4.50;2.60;;;16.40;58.50;;;;;;4995142;28;20026;-81
2023/06/06 04:39:00;;;;;;;4.07;2.60;;;16.40;58.40;;;;;;4995225;28;20034;-79
2023/06/06 04:41:31;;;;;;;4.23;2.60;;;16.30;58.90;;;;;;4994879;28;20034;-79
2023/06/06 04:44:01;;;;;;;5.07;2.40;;;16.30;59.00;;;;;;4995438;28;20023;-79
2023/06/06 04:46:29;;;;;;;2.95;2.63;;;16.30;58.60;;;;;;5000717;28;20054;-79
2023/06/06 04:48:56;;;;;;;3.60;2.78;;;16.30;58.50;;;;;;5011956;28;20402;-79
2023/06/06 04:51:29;;;;;;;3.70;2.05;;;16.30;58.80;;;;;;5015602;28;20049;-79
2023/06/06 04:54:03;;;;;;;3.00;2.22;;;16.30;58.70;;;;;;5011086;28;20424;-80
2023/06/06 04:56:29;;;;;;;11.38;3.00;;;16.30;58.60;;;;;;5000119;28;20015;-81
2023/06/06 04:59:05;;;;;;;4.05;2.45;;;16.30;58.50;;;;;;5005679;28;20526;-81
2023/06/06 05:01:36;;;;;;;5.00;2.97;;;16.40;58.70;;;;;;5004230;28;20058;-80
2023/06/06 05:04:03;;;;;;;3.25;2.35;;;16.40;58.40;;;;;;5004385;28;20399;-82
2023/06/06 05:06:33;;;;;;;6.70;2.95;;;16.40;58.30;;;;;;5004761;28;20399;-79
2023/06/06 05:09:07;;;;;;;3.22;2.63;;;16.50;59.00;;;;;;5004090;28;20096;-79
2023/06/06 05:11:33;;;;;;;3.90;2.22;;;16.50;58.30;;;;;;5000815;28;20019;-81
2023/06/06 05:13:59;;;;;;;4.00;2.58;;;16.60;58.30;;;;;;5002576;28;20018;-79
2023/06/06 05:16:25;;;;;;;4.47;2.53;;;16.70;58.30;;;;;;5001929;28;20018;-79
2023/06/06 05:18:50;;;;;;;2.60;2.40;;;16.80;57.90;;;;;;4995541;28;20029;-81
2023/06/06 05:21:17;;;;;;;5.28;3.17;;;16.90;57.50;;;;;;4993981;28;20089;-78
2023/06/06 05:23:43;;;;;;;4.65;2.67;;;16.90;57.20;;;;;;4995419;28;20153;-79
2023/06/06 05:26:09;;;;;;;4.50;2.53;;;17.00;57.20;;;;;;4999096;28;20097;-78
2023/06/06 05:28:36;;;;;;;3.53;2.20;;;17.00;57.10;;;;;;5010924;28;20036;-79
2023/06/06 05:31:02;;;;;;;8.18;3.15;;;17.10;57.60;;;;;;5002656;28;20026;-81
2023/06/06 05:33:30;;;;;;;6.63;2.45;;;17.20;57.20;;;;;;4997094;28;20053;-79
2023/06/06 05:35:56;;;;;;;5.22;2.83;;;17.30;56.90;;;;;;4995345;28;20022;-78
2023/06/06 05:38:24;;;;;;;4.65;2.65;;;17.40;56.90;;;;;;4993605;28;20018;-79
2023/06/06 05:40:50;;;;;;;4.60;2.50;;;17.40;56.30;;;;;;4994872;28;20034;-80
2023/06/06 05:43:16;;;;;;;5.90;2.60;;;17.40;56.40;;;;;;4994916;28;20524;-81
2023/06/06 05:45:42;;;;;;;4.28;2.67;;;17.50;56.50;;;;;;4993891;28;20027;-81
2023/06/06 05:48:08;;;;;;;14.82;3.92;;;17.60;56.20;;;;;;4995128;28;20062;-81
2023/06/06 05:50:34;;;;;;;3.05;2.53;;;17.70;56.60;;;;;;4993836;28;20037;-80
2023/06/06 05:53:02;;;;;;;3.83;2.47;;;17.70;56.20;;;;;;4995069;28;20018;-82
2023/06/06 05:55:32;;;;;;;8.60;3.20;;;17.80;56.40;;;;;;4994306;28;20038;-79
2023/06/06 05:57:59;;;;;;;5.35;3.78;;;17.80;56.30;;;;;;4994899;28;20054;-80
2023/06/06 06:00:27;;;;;;;3.05;2.55;;;17.80;55.50;;;;;;4993440;28;20511;-80
2023/06/06 06:02:55;;;;;;;4.90;2.80;;;17.90;55.80;;;;;;4992634;28;20053;-82
2023/06/06 06:05:22;;;;;;;13.57;3.40;;;18.00;56.40;;;;;;4990525;28;20129;-82
2023/06/06 06:07:48;;;;;;;3.67;2.60;;;18.10;56.20;;;;;;4990199;28;20084;-81
2023/06/06 06:10:14;;;;;;;7.65;3.22;;;18.00;55.50;;;;;;4992513;28;20026;-80
2023/06/06 06:12:42;;;;;;;6.35;3.50;;;18.10;56.10;;;;;;4992780;28;20030;-79
2023/06/06 06:15:08;;;;;;;4.57;2.25;;;18.20;56.50;;;;;;4990813;28;20027;-80
2023/06/06 06:17:34;;;;;;;5.78;2.45;;;18.30;56.00;;;;;;4992725;28;20022;-79
2023/06/06 06:20:07;;;;;;;5.38;2.78;;;18.30;56.30;;;;;;4991202;28;20594;-81
2023/06/06 06:22:33;;;;;;;5.88;2.80;;;18.50;56.40;;;;;;4990855;28;20030;-80
2023/06/06 06:24:59;;;;;;;5.20;3.20;;;18.50;56.30;;;;;;4990884;28;20056;-79
2023/06/06 06:27:25;;;;;;;5.38;2.72;;;18.60;56.20;;;;;;4990140;28;20022;-79
2023/06/06 06:29:50;;;;;;;8.68;2.65;;;18.60;56.20;;;;;;4991229;28;20026;-81
2023/06/06 06:32:19;;;;;;;7.03;2.70;;;18.70;56.00;;;;;;4990177;28;20025;-81
2023/06/06 06:34:45;;;;;;;6.28;3.45;;;18.80;56.20;;;;;;4989718;28;20030;-80
2023/06/06 06:37:10;;;;;;;7.47;2.60;;;18.90;56.00;;;;;;4990270;28;20022;-80
2023/06/06 06:39:36;;;;;;;7.78;2.92;;;19.00;55.60;;;;;;4990894;28;20022;-81
2023/06/06 06:42:02;;;;;;;2.83;2.45;;;19.20;55.80;;;;;;4992155;28;20034;-80
2023/06/06 06:44:28;;;;;;;3.35;2.53;;;19.50;55.40;;;;;;4991127;28;20030;-80
2023/06/06 06:46:53;;;;;;;5.47;3.03;;;19.60;55.50;;;;;;4992307;28;20034;-80
2023/06/06 06:49:20;;;;;;;5.68;3.30;;;19.70;55.30;;;;;;4992202;28;20041;-81
2023/06/06 06:51:45;;;;;;;12.13;3.55;;;19.80;54.80;;;;;;4991902;28;20023;-81
2023/06/06 06:54:12;;;;;;;6.88;3.20;;;19.80;56.10;;;;;;4990975;28;20415;-80
2023/06/06 06:56:41;;;;;;;8.35;3.03;;;19.90;55.40;;;;;;4990944;28;20109;-81
2023/06/06 06:59:07;;;;;;;12.60;3.55;;;20.10;55.50;;;;;;4992809;28;20025;-81
2023/06/06 07:01:34;;;;;;;3.92;2.70;;;20.30;55.90;;;;;;4991417;28;20030;-80
2023/06/06 07:04:00;;;;;;;3.42;2.97;;;20.50;55.80;;;;;;4992620;28;20483;-80
2023/06/06 07:06:27;;;;;;;3.00;2.50;;;20.60;54.80;;;;;;4993050;28;20058;-81
2023/06/06 07:08:53;;;;;;;4.13;2.15;;;20.70;53.90;;;;;;4992889;28;20031;-80
2023/06/06 07:11:18;;;;;;;4.97;2.78;;;20.80;53.30;;;;;;4992894;28;20105;-81
2023/06/06 07:13:44;;;;;;;4.65;2.88;;;20.90;53.80;;;;;;4994091;28;20023;-81
2023/06/06 07:27:10;;;;;;;6.45;2.78;;;21.00;53.50;;;;;;5087436;28;20438;-79
2023/06/06 07:29:36;;;;;;;7.07;3.13;;;21.80;52.80;;;;;;5087644;28;20024;-81
2023/06/06 07:32:02;;;;;;;6.40;2.85;;;21.80;51.90;;;;;;5087184;28;20027;-79
2023/06/06 07:34:28;;;;;;;4.15;2.75;;;21.80;52.30;;;;;;5085957;28;20020;-78
2023/06/06 07:36:53;;;;;;;6.60;3.20;;;21.80;52.80;;;;;;5087242;28;20377;-78
2023/06/06 07:39:19;;;;;;;5.30;3.00;;;21.80;52.50;;;;;;5087286;28;20099;-81
2023/06/06 07:41:45;;;;;;;6.40;3.10;;;21.90;53.00;;;;;;5087168;28;20024;-81
2023/06/06 07:44:10;;;;;;;10.00;4.30;;;22.20;53.10;;;;;;5085843;28;20040;-81
2023/06/06 07:46:36;;;;;;;9.45;3.08;;;22.50;53.40;;;;;;5087025;28;20020;-81
2023/06/06 07:49:02;;;;;;;4.35;3.17;;;22.50;51.90;;;;;;5087113;28;20024;-81
2023/06/06 07:51:28;;;;;;;6.28;3.40;;;22.60;52.90;;;;;;5085636;28;20028;-81
2023/06/06 07:53:54;;;;;;;5.57;3.33;;;22.70;52.00;;;;;;5086984;28;20025;-81
2023/06/06 07:56:20;;;;;;;7.10;3.15;;;22.70;51.30;;;;;;5085622;28;20253;-81
2023/06/06 07:58:51;;;;;;;14.80;3.67;;;22.70;51.00;;;;;;5086980;28;20031;-81
2023/06/06 08:01:19;;;;;;;12.52;3.63;;;22.80;50.60;;;;;;5086841;28;20043;-81
2023/06/06 08:03:54;;;;;;;7.28;3.20;;;22.90;51.40;;;;;;5085520;28;20020;-81
2023/06/06 08:06:27;;;;;;;11.38;3.90;;;22.80;50.60;;;;;;5085563;28;20024;-81
2023/06/06 08:08:53;;;;;;;6.38;3.30;;;22.70;51.60;;;;;;5085551;28;20057;-81
2023/06/06 08:11:19;;;;;;;5.75;3.92;;;22.50;50.70;;;;;;5085322;28;20013;-81
2023/06/06 08:13:45;;;;;;;5.45;3.38;;;22.50;51.20;;;;;;5085359;28;20032;-81
2023/06/06 08:16:11;;;;;;;5.22;3.17;;;22.50;50.90;;;;;;5085240;28;20088;-81
2023/06/06 08:18:38;;;;;;;11.40;3.38;;;22.30;51.60;;;;;;5086663;28;20492;-78
2023/06/06 08:21:03;;;;;;;37.70;6.00;;;22.40;52.30;;;;;;5086457;28;20098;-78
2023/06/06 08:23:29;;;;;;;6.90;3.10;;;22.50;53.00;;;;;;5085214;28;20016;-79
2023/06/06 08:25:58;;;;;;;12.35;4.18;;;22.30;51.60;;;;;;5085483;28;20037;-79
2023/06/06 08:28:24;;;;;;;26.88;5.22;;;22.30;51.50;;;;;;5071383;28;20028;-79
2023/06/06 08:30:51;;;;;;;4.95;3.30;;;22.40;51.90;;;;;;5072958;28;20389;-79
2023/06/06 08:33:20;;;;;;;4.55;3.42;;;22.60;52.30;;;;;;5072896;28;20173;-79
2023/06/06 08:35:46;;;;;;;5.13;3.08;;;22.50;51.30;;;;;;5072719;28;20040;-80
2023/06/06 08:38:12;;;;;;;8.85;3.22;;;22.40;51.80;;;;;;5071691;27;20377;-79
2023/06/06 08:40:39;;;;;;;12.98;3.40;;;22.40;52.00;;;;;;5071487;28;20016;-79
2023/06/06 08:43:06;;;;;;;10.93;3.63;;;22.50;52.00;;;;;;5071565;28;20073;-80
2023/06/06 08:45:32;;;;;;;9.20;2.75;;;22.60;52.20;;;;;;5072664;28;20115;-79
2023/06/06 08:48:01;;;;;;;4.22;2.85;;;22.80;52.90;;;;;;5072677;28;20162;-79
2023/06/06 08:50:28;;;;;;;6.40;2.80;;;23.00;53.30;;;;;;5072562;28;20098;-79
2023/06/06 08:52:55;;;;;;;5.03;2.97;;;23.30;51.70;;;;;;5072588;28;20021;-79
2023/06/06 08:55:21;;;;;;;5.38;3.30;;;23.40;51.70;;;;;;5071219;28;20040;-79
2023/06/06 08:57:47;;;;;;;3.53;2.60;;;23.50;51.10;;;;;;5072433;28;20017;-79
2023/06/06 09:00:23;;;;;;;4.03;2.85;;;23.80;51.80;;;;;;5072485;28;20025;-80
2023/06/06 09:02:53;;;;;;;16.95;4.43;;;23.70;50.40;;;;;;5071358;28;20025;-80
2023/06/06 09:05:20;;;;;;;5.38;3.08;;;23.70;50.20;;;;;;5072553;28;20025;-80
2023/06/06 09:07:49;;;;;;;9.88;3.70;;;23.90;50.50;;;;;;5071369;28;20032;-79
2023/06/06 09:10:16;;;;;;;5.00;3.03;;;24.10;50.20;;;;;;5071192;28;20031;-80
2023/06/06 09:12:43;;;;;;;4.88;3.10;;;24.00;49.50;;;;;;5071013;28;20025;-80
2023/06/06 09:15:10;;;;;;;26.98;5.20;;;24.10;49.00;;;;;;5072358;28;20396;-80
2023/06/06 09:17:36;;;;;;;7.25;3.08;;;24.30;49.40;;;;;;5072238;28;20017;-80
2023/06/06 09:20:13;;;;;;;11.70;3.08;;;24.20;49.80;;;;;;5072194;28;20028;-80
2023/06/06 09:22:43;;;;;;;4.95;3.70;;;24.10;48.90;;;;;;5071067;27;20048;-80
2023/06/06 09:25:26;;;;;;;5.82;2.67;;;24.10;50.10;;;;;;5071916;28;20041;-80
2023/06/06 09:27:59;;;;;;;5.20;2.75;;;24.10;49.40;;;;;;5072070;28;20044;-80
2023/06/06 09:30:27;;;;;;;17.27;4.45;;;24.10;49.90;;;;;;5072196;28;20071;-80
2023/06/06 09:32:53;;;;;;;13.63;3.97;;;24.30;49.20;;;;;;5070758;28;20162;-81
2023/06/06 09:35:19;;;;;;;7.38;3.00;;;24.60;49.40;;;;;;5071907;28;20107;-81
2023/06/06 09:37:46;;;;;;;30.40;6.13;;;25.00;49.50;;;;;;5070032;28;20405;-81
2023/06/06 09:40:13;;;;;;;19.92;4.15;;;24.90;48.70;;;;;;5069924;28;20017;-81
2023/06/06 09:42:40;;;;;;;6.13;2.70;;;24.60;47.50;;;;;;5072031;28;20101;-81
2023/06/06 09:45:26;;;;;;;7.85;3.05;;;24.50;49.30;;;;;;5071737;28;20020;-81
2023/06/06 09:47:52;;;;;;;7.90;3.15;;;24.00;49.40;;;;;;5070345;28;20492;-81
2023/06/06 09:50:19;;;;;;;21.52;3.92;;;24.10;50.30;;;;;;5071778;28;20031;-81
2023/06/06 09:52:45;;;;;;;5.55;2.60;;;24.10;50.60;;;;;;5070709;28;20028;-81
2023/06/06 09:55:12;;;;;;;13.30;3.40;;;23.70;49.90;;;;;;5071604;28;20040;-80
2023/06/06 09:57:40;;;;;;;10.18;3.25;;;23.60;51.20;;;;;;5071653;28;20381;-80
2023/06/06 10:00:10;;;;;;;13.82;3.85;;;23.50;51.60;;;;;;5070295;28;20039;-80
2023/06/06 10:02:40;;;;;;;11.65;3.30;;;23.70;51.20;;;;;;5070250;28;20025;-81
2023/06/06 10:05:07;;;;;;;5.75;2.85;;;23.80;51.40;;;;;;5071367;28;20017;-81
2023/06/06 10:07:33;;;;;;;6.90;4.03;;;23.90;51.70;;;;;;5071602;28;20119;-81
2023/06/06 10:09:59;;;;;;;3.67;2.78;;;24.10;50.90;;;;;;5071351;28;20469;-81
2023/06/06 10:12:29;;;;;;;4.45;2.80;;;24.30;51.00;;;;;;5071379;28;20029;-81
2023/06/06 10:14:56;;;;;;;4.65;2.70;;;24.80;51.50;;;;;;5070766;28;20036;-80
2023/06/06 10:17:23;;;;;;;10.60;3.25;;;25.00;50.20;;;;;;5071072;28;20021;-81
2023/06/06 10:19:52;;;;;;;4.25;2.85;;;24.80;49.20;;;;;;5069845;28;20025;-81
2023/06/06 10:22:17;;;;;;;8.55;3.03;;;24.80;49.40;;;;;;5070465;27;20174;-80
2023/06/06 10:24:43;;;;;;;3.58;2.78;;;24.50;50.30;;;;;;5128149;27;20025;-80
2023/06/06 10:27:37;;;;;;;3.33;3.00;;;24.70;49.20;;;;;;5149698;27;20029;-80
2023/06/06 10:30:06;;;;;;;5.68;2.60;;;24.90;49.70;;;;;;5175329;27;20026;-81
2023/06/06 10:32:50;;;;;;;4.80;2.80;;;25.30;48.30;;;;;;5176308;27;20033;-81
2023/06/06 10:35:17;;;;;;;5.10;2.88;;;25.20;48.30;;;;;;5066143;27;20033;-81
2023/06/06 10:38:09;;;;;;;6.63;2.85;;;25.30;47.40;;;;;;5050909;28;20048;-81
2023/06/06 10:40:55;;;;;;;4.00;3.15;;;25.20;47.60;;;;;;5049192;28;20025;-80
2023/06/06 10:43:57;;;;;;;4.43;3.00;;;25.30;46.70;;;;;;5051734;28;20020;-80
2023/06/06 10:46:23;;;;;;;4.13;2.80;;;25.40;47.40;;;;;;5050224;28;20497;-81
2023/06/06 10:48:56;;;;;;;6.25;2.70;;;25.60;47.20;;;;;;5050190;28;20271;-81
2023/06/06 10:51:36;;;;;;;5.57;3.05;;;25.40;48.20;;;;;;5048725;27;20025;-81
2023/06/06 10:54:27;;;;;;;4.20;2.67;;;25.20;48.30;;;;;;5068118;27;20044;-80
2023/06/06 10:56:56;;;;;;;7.28;3.20;;;25.10;48.00;;;;;;5060877;28;20024;-80
2023/06/06 10:59:26;;;;;;;7.75;3.17;;;24.90;49.30;;;;;;5052264;28;20509;-80
2023/06/06 11:01:53;;;;;;;7.50;3.08;;;24.90;48.90;;;;;;5068551;28;20027;-80
2023/06/06 11:04:21;;;;;;;4.05;2.50;;;25.00;49.20;;;;;;5066445;28;20048;-80
2023/06/06 11:06:48;;;;;;;7.07;3.30;;;24.90;49.40;;;;;;5065207;28;20080;-80
2023/06/06 11:09:22;;;;;;;9.88;3.25;;;24.80;49.20;;;;;;5068335;28;20044;-80
2023/06/06 11:12:07;;;;;;;6.43;3.20;;;24.80;49.30;;;;;;5065044;28;20039;-80
2023/06/06 11:14:55;;;;;;;6.15;2.70;;;25.00;49.40;;;;;;5066890;28;20041;-79
2023/06/06 11:17:24;;;;;;;6.05;3.03;;;25.20;49.60;;;;;;5064073;28;20064;-79
2023/06/06 11:19:51;;;;;;;4.00;3.00;;;25.30;49.10;;;;;;5068268;28;20048;-76
2023/06/06 11:22:23;;;;;;;11.65;3.45;;;25.50;47.80;;;;;;5067690;28;20020;-77
2023/06/06 11:24:49;;;;;;;4.75;2.90;;;25.50;48.50;;;;;;5066216;28;20047;-77
2023/06/06 11:27:18;;;;;;;6.88;2.88;;;25.40;48.60;;;;;;5066995;28;20028;-77
2023/06/06 11:29:45;;;;;;;4.38;3.25;;;25.50;48.60;;;;;;5067032;28;20032;-78
2023/06/06 11:32:12;;;;;;;11.52;3.60;;;25.70;48.20;;;;;;5068910;28;20380;-78
2023/06/06 11:34:38;;;;;;;7.10;3.15;;;25.70;47.80;;;;;;5069077;27;20484;-77
2023/06/06 11:37:06;;;;;;;9.73;3.65;;;25.60;48.30;;;;;;5068305;28;20477;-77
2023/06/06 11:39:32;;;;;;;7.38;2.85;;;25.40;48.80;;;;;;5068501;28;20021;-77
2023/06/06 11:41:57;;;;;;;9.40;3.25;;;25.40;49.50;;;;;;5071605;28;20104;-77
2023/06/06 11:44:32;;;;;;;7.25;2.97;;;25.40;49.80;;;;;;5089307;27;20049;-77
2023/06/06 11:46:57;;;;;;;7.35;2.78;;;25.30;49.40;;;;;;5070131;27;20044;-77
2023/06/06 11:49:23;;;;;;;4.97;3.22;;;25.20;50.30;;;;;;5067416;28;20025;-78
2023/06/06 11:52:00;;;;;;;4.15;3.58;;;25.20;50.30;;;;;;5068483;28;20069;-78
2023/06/06 11:54:27;;;;;;;7.00;3.25;;;25.10;50.10;;;;;;5067142;28;20489;-78
2023/06/06 11:56:56;;;;;;;10.77;3.33;;;24.80;50.10;;;;;;5079138;28;20020;-78
2023/06/06 11:59:23;;;;;;;11.13;3.35;;;24.50;50.10;;;;;;5070748;28;20055;-78
2023/06/06 12:01:50;;;;;;;5.80;3.30;;;24.30;50.50;;;;;;5069062;28;20024;-77
2023/06/06 12:04:22;;;;;;;4.88;3.00;;;24.20;50.10;;;;;;5071882;28;20017;-78
2023/06/06 12:06:50;;;;;;;4.15;3.47;;;24.10;50.10;;;;;;5070683;28;20060;-79
2023/06/06 12:09:17;;;;;;;6.22;3.40;;;24.10;51.30;;;;;;5071627;28;20388;-78
2023/06/06 12:11:51;;;;;;;6.70;3.25;;;24.00;51.90;;;;;;5071359;28;20073;-79
2023/06/06 12:14:17;;;;;;;6.80;3.88;;;24.00;52.20;;;;;;5070368;28;20035;-78
2023/06/06 12:16:42;;;;;;;6.20;4.00;;;24.00;52.20;;;;;;5071857;28;20024;-78
2023/06/06 12:19:13;;;;;;;5.35;3.72;;;23.90;52.20;;;;;;5070684;28;20050;-78
2023/06/06 12:21:52;;;;;;;6.22;4.40;;;23.80;52.40;;;;;;5063935;28;20072;-78
2023/06/06 12:24:22;;;;;;;10.93;4.85;;;23.80;52.90;;;;;;5072234;28;20042;-79
2023/06/06 12:26:59;;;;;;;9.85;4.72;;;23.70;53.20;;;;;;5071762;28;20055;-77
2023/06/06 12:29:33;;;;;;;7.28;4.47;;;23.50;54.00;;;;;;5068953;28;20036;-79
2023/06/06 12:32:19;;;;;;;9.68;4.72;;;23.40;54.30;;;;;;5071110;28;20021;-78
2023/06/06 12:34:59;;;;;;;12.25;5.32;;;23.30;55.60;;;;;;5070995;28;20028;-76
2023/06/06 12:37:55;;;;;;;8.10;4.95;;;23.20;56.10;;;;;;5072217;28;20021;-77
2023/06/06 12:40:33;;;;;;;9.77;4.85;;;23.10;57.30;;;;;;5076242;28;20044;-76
2023/06/06 12:43:04;;;;;;;13.38;5.30;;;22.90;59.90;;;;;;5070612;28;20033;-77
2023/06/06 12:45:35;;;;;;;12.00;5.45;;;22.70;60.90;;;;;;5054697;28;20040;-77
2023/06/06 12:48:00;;;;;;;8.80;4.85;;;22.60;61.70;;;;;;5070397;28;20450;-77
2023/06/06 12:50:26;;;;;;;17.58;5.45;;;22.40;63.90;;;;;;5071669;28;20021;-75
2023/06/06 12:52:52;;;;;;;14.00;5.80;;;22.40;65.80;;;;;;5070632;28;20023;-76
2023/06/06 12:55:18;;;;;;;9.65;5.72;;;22.30;66.00;;;;;;5069420;28;20020;-79
2023/06/06 12:57:45;;;;;;;9.40;5.15;;;22.30;69.00;;;;;;5069617;28;20104;-79
2023/06/06 13:00:13;;;;;;;8.70;5.28;;;22.20;70.80;;;;;;5071932;28;20088;-76
2023/06/06 13:02:39;;;;;;;11.18;5.78;;;22.00;72.00;;;;;;5070869;27;20115;-76